Carson, Virginia
Current Conditions -  °F | °C
As of 11:35 AM on Sunday 21 Dec 2014 (Local Time) from KPTB Reporting Station
Overcast Overcast  
Wind Chill: 42°   Ceiling: 7000
Heat Index: 42°   Visibility: 10mi
Dew Point: 26°   Wind: 3mph
Humidity: 53%   Direction: 50°NE
Pressure: 30.35"   Gusts: NA
Location:  37.04°N, 77.4°W
Report Text: KPTB 211635Z AUTO 05003KT 10SM OVC070 06/M03 A3035 RMK AO2 T00581031
Loading
Personal Weather Stations






























Interactive Weather Map New forecast layout! Learn more

10-Day Weather Forecast

Advertisements
Track Severe Weather on mobile